Time;durP1;ratioP1;P1;durP2;ratioP2;P2;SDS_P1;SDS_P2;PMS_P1;PMS_P2;Temp;Humidity;BMP_temperature;BMP_pressure;BME280_temperature;BME280_humidity;BME280_pressure;Samples;Min_cycle;Max_cycle;Signal;HPM_P1;HPM_P2
2022/10/30 05:00:33;;;;;;;10.17;5.43;;;12.80;99.90;;;;;;6008908;23;20367;-75
2022/10/30 05:03:01;;;;;;;9.77;5.17;;;12.70;99.90;;;;;;5005370;28;20668;-75
2022/10/30 05:05:28;;;;;;;11.93;4.83;;;12.70;99.90;;;;;;4999090;28;20461;-77
2022/10/30 05:07:54;;;;;;;9.27;4.93;;;12.70;99.90;;;;;;5006299;28;20450;-75
2022/10/30 05:10:21;;;;;;;11.10;4.60;;;12.70;99.90;;;;;;5005743;28;20459;-75
2022/10/30 05:12:48;;;;;;;13.53;5.50;;;12.70;99.90;;;;;;5005523;28;21250;-75
2022/10/30 05:15:15;;;;;;;11.87;4.50;;;12.70;99.90;;;;;;5005213;28;20466;-75
2022/10/30 05:17:43;;;;;;;11.10;4.60;;;12.70;99.90;;;;;;5005142;28;20451;-75
2022/10/30 05:20:11;;;;;;;11.13;5.10;;;12.70;99.90;;;;;;4997412;28;20469;-76
2022/10/30 05:22:37;;;;;;;10.37;5.00;;;12.60;99.90;;;;;;5005824;28;20470;-76
2022/10/30 05:25:05;;;;;;;9.63;4.00;;;12.60;99.90;;;;;;4997486;28;20451;-76
2022/10/30 05:27:32;;;;;;;10.13;5.33;;;12.60;99.90;;;;;;5006393;28;20465;-75
2022/10/30 05:29:58;;;;;;;9.77;4.67;;;12.60;99.90;;;;;;5006001;28;20833;-75
2022/10/30 05:32:25;;;;;;;11.07;4.73;;;12.60;99.90;;;;;;5005414;28;21002;-76
2022/10/30 05:34:53;;;;;;;7.73;3.90;;;12.60;99.90;;;;;;5005461;28;20457;-75
2022/10/30 05:37:20;;;;;;;10.57;4.73;;;12.60;99.90;;;;;;5006025;28;20831;-75
2022/10/30 05:39:47;;;;;;;12.17;5.30;;;12.60;99.90;;;;;;5005596;28;21267;-75
2022/10/30 05:42:13;;;;;;;11.80;5.27;;;12.50;99.90;;;;;;5006097;28;20483;-75
2022/10/30 05:44:40;;;;;;;14.73;5.37;;;12.50;99.90;;;;;;5005546;28;20961;-75
2022/10/30 05:47:07;;;;;;;13.50;4.90;;;12.50;99.90;;;;;;5006118;28;20467;-76
2022/10/30 05:49:34;;;;;;;9.90;5.00;;;12.40;99.90;;;;;;5005801;28;20458;-76
2022/10/30 05:52:02;;;;;;;9.10;4.53;;;12.40;99.90;;;;;;5004928;28;20822;-75
2022/10/30 05:54:29;;;;;;;12.37;4.90;;;12.40;99.90;;;;;;5005226;28;20462;-75
2022/10/30 05:56:57;;;;;;;11.63;4.90;;;12.40;99.90;;;;;;5005541;28;21177;-76
2022/10/30 05:59:24;;;;;;;11.50;4.97;;;12.40;99.90;;;;;;5002271;28;20998;-76
2022/10/30 06:01:51;;;;;;;8.90;4.47;;;12.40;99.90;;;;;;5006644;28;20566;-76
2022/10/30 06:04:18;;;;;;;8.73;4.00;;;12.40;99.90;;;;;;5010716;28;20455;-78
2022/10/30 06:06:44;;;;;;;7.40;4.90;;;12.30;99.90;;;;;;5008966;28;20462;-77
2022/10/30 06:09:12;;;;;;;12.80;4.70;;;12.30;99.90;;;;;;5011225;28;20455;-77
2022/10/30 06:11:39;;;;;;;9.90;5.20;;;12.30;99.90;;;;;;5011496;28;20485;-79
2022/10/30 06:14:06;;;;;;;9.90;4.90;;;12.30;99.90;;;;;;5010831;28;20497;-77
2022/10/30 06:16:33;;;;;;;7.60;5.23;;;12.20;99.90;;;;;;5010526;28;20470;-79
2022/10/30 06:18:59;;;;;;;11.17;5.50;;;12.20;99.90;;;;;;5010237;28;20458;-78
2022/10/30 06:21:26;;;;;;;12.03;4.90;;;12.20;99.90;;;;;;5008365;28;20487;-75
2022/10/30 06:23:53;;;;;;;9.33;4.87;;;12.20;99.90;;;;;;5009378;28;20802;-81
2022/10/30 06:26:21;;;;;;;7.57;5.10;;;12.20;99.90;;;;;;5012423;28;20470;-80
2022/10/30 06:28:48;;;;;;;9.87;4.97;;;12.20;99.90;;;;;;5013577;28;20458;-80
2022/10/30 06:31:14;;;;;;;10.00;5.60;;;12.20;99.90;;;;;;5012928;28;20917;-78
2022/10/30 06:33:41;;;;;;;13.67;5.57;;;12.10;99.90;;;;;;5014443;28;20946;-76
2022/10/30 06:36:08;;;;;;;14.23;5.10;;;12.10;99.90;;;;;;5012377;28;20801;-82
2022/10/30 06:38:35;;;;;;;18.20;6.57;;;12.10;99.90;;;;;;5014910;28;20447;-81
2022/10/30 06:41:02;;;;;;;14.83;5.60;;;12.10;99.90;;;;;;5003876;28;20486;-78
2022/10/30 06:43:30;;;;;;;9.50;5.30;;;12.10;99.90;;;;;;5013374;28;20447;-81
2022/10/30 06:45:57;;;;;;;8.00;5.47;;;12.10;99.90;;;;;;5014978;28;20454;-81
2022/10/30 06:48:24;;;;;;;14.00;6.20;;;12.00;99.90;;;;;;5014631;28;20469;-80
2022/10/30 06:50:54;;;;;;;9.07;5.57;;;12.00;99.90;;;;;;5014982;28;20479;-81
2022/10/30 06:53:23;;;;;;;12.50;6.53;;;12.10;99.90;;;;;;5013716;28;20510;-80
2022/10/30 06:55:56;;;;;;;11.70;5.40;;;12.00;99.90;;;;;;5013055;28;21134;-83
2022/10/30 06:58:23;;;;;;;9.93;5.60;;;12.00;99.90;;;;;;5014273;28;20462;-80
2022/10/30 07:00:51;;;;;;;13.80;5.50;;;12.10;99.90;;;;;;5013585;28;20489;-79
2022/10/30 07:03:18;;;;;;;13.47;5.20;;;12.10;99.90;;;;;;5013251;28;20455;-79
2022/10/30 07:05:45;;;;;;;11.60;5.30;;;12.10;99.90;;;;;;5016957;28;20462;-79
2022/10/30 07:08:12;;;;;;;9.67;4.47;;;12.10;99.90;;;;;;5013527;28;20458;-78
2022/10/30 07:10:39;;;;;;;12.87;6.10;;;12.10;99.90;;;;;;5011621;28;20831;-77
2022/10/30 07:13:06;;;;;;;14.00;5.50;;;12.10;99.90;;;;;;5010824;28;20498;-77
2022/10/30 07:15:32;;;;;;;12.13;5.37;;;12.20;99.90;;;;;;5010434;28;20470;-78
2022/10/30 07:18:02;;;;;;;15.70;5.70;;;12.20;99.90;;;;;;5014541;28;20466;-78
2022/10/30 07:20:32;;;;;;;11.10;5.10;;;12.20;99.90;;;;;;5015567;28;20473;-78
2022/10/30 07:22:59;;;;;;;9.20;6.17;;;12.20;99.90;;;;;;5015914;28;20447;-78
2022/10/30 07:25:26;;;;;;;10.43;5.63;;;12.30;99.90;;;;;;5013813;28;20474;-78
2022/10/30 07:27:54;;;;;;;11.63;5.77;;;12.30;99.90;;;;;;5013408;28;20461;-79
2022/10/30 07:30:22;;;;;;;12.13;6.13;;;12.30;99.90;;;;;;5013712;28;20478;-78
2022/10/30 07:32:57;;;;;;;12.90;6.67;;;12.30;99.90;;;;;;5003729;28;20463;-80
2022/10/30 07:35:25;;;;;;;10.33;5.50;;;12.40;99.90;;;;;;5009910;28;20453;-80
2022/10/30 07:37:52;;;;;;;13.03;6.20;;;12.40;99.90;;;;;;5013727;28;20490;-78
2022/10/30 07:40:19;;;;;;;15.27;5.60;;;12.50;99.90;;;;;;5010634;28;20465;-75
2022/10/30 07:42:46;;;;;;;13.20;5.50;;;12.50;99.90;;;;;;5008323;28;20454;-78
2022/10/30 07:45:12;;;;;;;13.50;6.00;;;12.60;99.90;;;;;;5009125;28;20446;-78
2022/10/30 07:47:40;;;;;;;13.10;5.07;;;12.60;99.90;;;;;;5002666;28;20460;-79
2022/10/30 07:50:08;;;;;;;7.50;5.50;;;12.60;99.90;;;;;;5008526;28;20505;-79
2022/10/30 07:52:36;;;;;;;10.70;5.43;;;12.70;99.90;;;;;;5002617;28;20480;-78
2022/10/30 07:55:04;;;;;;;12.57;5.83;;;12.70;99.90;;;;;;5008319;28;20490;-80
2022/10/30 07:57:32;;;;;;;8.83;4.83;;;12.80;99.90;;;;;;5013528;28;20463;-77
2022/10/30 07:59:58;;;;;;;8.90;5.70;;;12.90;99.90;;;;;;5010982;28;20455;-78
2022/10/30 08:02:25;;;;;;;16.70;6.13;;;13.00;99.90;;;;;;5010946;28;21044;-80
2022/10/30 08:04:52;;;;;;;12.93;6.90;;;13.00;99.90;;;;;;5010903;28;20455;-79
2022/10/30 08:07:19;;;;;;;13.97;5.77;;;13.10;99.90;;;;;;5009681;28;20471;-78
2022/10/30 08:09:48;;;;;;;12.70;5.83;;;13.20;99.90;;;;;;5010756;28;20955;-78
2022/10/30 08:12:15;;;;;;;10.73;6.00;;;13.20;99.90;;;;;;5012535;28;20479;-78
2022/10/30 08:14:42;;;;;;;10.50;6.20;;;13.30;99.90;;;;;;5008424;28;20499;-79
2022/10/30 08:17:09;;;;;;;12.63;5.83;;;13.40;99.90;;;;;;5007974;28;20478;-78
2022/10/30 08:19:36;;;;;;;10.73;5.47;;;13.50;99.90;;;;;;5007552;28;20875;-76
2022/10/30 08:22:03;;;;;;;16.33;6.50;;;13.70;99.90;;;;;;5006915;28;20864;-76
2022/10/30 08:24:29;;;;;;;11.07;6.50;;;13.80;99.90;;;;;;5006167;28;20468;-76
2022/10/30 08:26:58;;;;;;;12.30;5.27;;;13.80;99.90;;;;;;5006363;28;20459;-75
2022/10/30 08:29:24;;;;;;;9.40;5.20;;;14.00;99.90;;;;;;5006480;28;20466;-77
2022/10/30 08:31:51;;;;;;;13.30;5.80;;;14.00;99.90;;;;;;5007011;28;20483;-76
2022/10/30 08:34:18;;;;;;;15.47;5.20;;;14.20;99.90;;;;;;5007278;28;20486;-77
2022/10/30 08:36:47;;;;;;;16.33;5.77;;;14.30;99.90;;;;;;5011109;28;20455;-77
2022/10/30 08:39:14;;;;;;;11.33;5.97;;;14.50;99.90;;;;;;5013342;28;20454;-79
2022/10/30 08:41:41;;;;;;;14.57;7.07;;;14.70;99.90;;;;;;5021382;28;20486;-77
2022/10/30 08:44:09;;;;;;;15.60;6.30;;;14.90;99.90;;;;;;5010657;28;20469;-76
2022/10/30 08:46:36;;;;;;;14.30;6.20;;;15.10;99.90;;;;;;5010566;28;20488;-80
2022/10/30 08:49:03;;;;;;;15.57;5.50;;;15.10;99.90;;;;;;5012087;28;20466;-81
2022/10/30 08:51:32;;;;;;;16.17;5.60;;;15.30;99.90;;;;;;5010269;28;20478;-79
2022/10/30 08:53:59;;;;;;;14.40;5.87;;;15.50;99.90;;;;;;5014948;28;20513;-81
2022/10/30 08:56:26;;;;;;;9.03;4.87;;;15.60;99.90;;;;;;5011762;28;20459;-78
2022/10/30 08:58:53;;;;;;;6.60;4.47;;;15.70;99.90;;;;;;5012438;28;20466;-82
2022/10/30 09:01:21;;;;;;;14.60;5.70;;;15.90;99.90;;;;;;5012097;28;20501;-82
2022/10/30 09:03:48;;;;;;;16.27;5.30;;;15.90;99.90;;;;;;5012162;28;20463;-78
2022/10/30 09:06:15;;;;;;;10.40;4.60;;;16.10;99.90;;;;;;5010910;28;20459;-78
2022/10/30 09:08:41;;;;;;;9.90;4.30;;;16.20;99.90;;;;;;5014366;28;20455;-77
2022/10/30 09:11:08;;;;;;;11.97;5.40;;;16.40;99.90;;;;;;5016881;28;20487;-78
2022/10/30 09:13:35;;;;;;;14.00;5.30;;;16.60;99.90;;;;;;5018189;28;20509;-78
2022/10/30 09:16:03;;;;;;;13.03;4.83;;;17.10;99.90;;;;;;5017228;28;20458;-78
2022/10/30 09:18:31;;;;;;;15.80;4.83;;;17.50;99.90;;;;;;5018236;28;20461;-78
2022/10/30 09:20:58;;;;;;;9.70;4.30;;;17.60;99.90;;;;;;5017710;28;20481;-79
2022/10/30 09:23:25;;;;;;;13.03;5.33;;;17.70;99.90;;;;;;5016887;28;20553;-79
2022/10/30 09:25:52;;;;;;;14.90;4.80;;;18.00;99.90;;;;;;5017079;28;20466;-77
2022/10/30 09:28:19;;;;;;;11.80;4.43;;;18.20;99.90;;;;;;5017614;28;20461;-78
2022/10/30 09:30:48;;;;;;;12.73;4.63;;;18.70;99.90;;;;;;5018356;28;20486;-78
2022/10/30 09:33:15;;;;;;;9.50;5.27;;;18.90;99.90;;;;;;5018109;28;20459;-78
2022/10/30 09:35:43;;;;;;;17.10;4.67;;;18.90;99.90;;;;;;5024561;28;20462;-77
2022/10/30 09:38:10;;;;;;;10.70;3.80;;;18.90;99.90;;;;;;5026011;28;20462;-77
2022/10/30 09:40:49;;;;;;;12.27;4.50;;;19.00;99.90;;;;;;5024720;28;20498;-78
2022/10/30 09:43:27;;;;;;;9.53;5.40;;;19.10;99.90;;;;;;5014127;28;20447;-78
2022/10/30 09:46:13;;;;;;;12.97;5.53;;;19.10;99.90;;;;;;5012787;28;20915;-78
2022/10/30 09:49:17;;;;;;;15.27;5.20;;;19.20;99.90;;;;;;5013621;28;20438;-78
2022/10/30 09:52:12;;;;;;;12.70;4.60;;;19.40;99.90;;;;;;5004316;28;20478;-78
2022/10/30 09:54:53;;;;;;;12.93;4.10;;;19.60;99.90;;;;;;5003874;28;20577;-79
2022/10/30 09:57:30;;;;;;;15.93;5.23;;;19.70;99.90;;;;;;5014798;28;20431;-79
2022/10/30 10:00:05;;;;;;;14.20;4.37;;;19.80;99.90;;;;;;5013993;28;20451;-78
2022/10/30 10:02:35;;;;;;;8.67;3.83;;;19.90;99.90;;;;;;5013055;28;20489;-79
2022/10/30 10:05:12;;;;;;;10.90;3.57;;;20.00;99.90;;;;;;5013781;28;20669;-78
2022/10/30 10:07:44;;;;;;;10.90;4.50;;;20.20;99.90;;;;;;5014931;28;21475;-78
2022/10/30 10:10:17;;;;;;;15.83;4.60;;;20.30;99.90;;;;;;5014194;28;20455;-78
2022/10/30 10:12:47;;;;;;;7.93;4.60;;;20.40;99.90;;;;;;5013378;28;20462;-77
2022/10/30 10:15:20;;;;;;;8.17;4.03;;;20.50;99.90;;;;;;5013398;28;20500;-79
2022/10/30 10:17:47;;;;;;;13.23;4.87;;;20.60;99.90;;;;;;5014855;28;20442;-78
2022/10/30 10:20:19;;;;;;;12.27;4.43;;;20.80;99.90;;;;;;5014629;28;20877;-78
2022/10/30 10:22:49;;;;;;;12.10;5.07;;;21.00;99.90;;;;;;5014548;28;20455;-79
2022/10/30 10:25:19;;;;;;;8.20;3.90;;;21.60;99.90;;;;;;5014124;28;20455;-78
2022/10/30 10:27:57;;;;;;;11.20;4.50;;;21.70;99.90;;;;;;5014773;28;20465;-79
2022/10/30 10:30:26;;;;;;;9.77;4.23;;;22.50;99.90;;;;;;5014345;28;20518;-79
2022/10/30 10:33:18;;;;;;;11.33;4.00;;;22.50;99.90;;;;;;5014874;28;20470;-77
2022/10/30 10:35:58;;;;;;;9.93;4.77;;;22.40;99.90;;;;;;5003714;28;20495;-77
2022/10/30 10:38:38;;;;;;;9.20;4.30;;;22.50;99.90;;;;;;5014660;28;20465;-79
2022/10/30 10:41:17;;;;;;;18.40;4.20;;;23.30;99.90;;;;;;5014163;28;20479;-78
2022/10/30 10:43:59;;;;;;;11.37;3.93;;;23.40;99.90;;;;;;5017645;28;20435;-78
2022/10/30 10:46:48;;;;;;;8.33;3.80;;;23.70;99.90;;;;;;5015832;28;20522;-79
2022/10/30 10:49:28;;;;;;;9.47;3.90;;;24.40;99.90;;;;;;5017705;28;20453;-78
2022/10/30 10:51:59;;;;;;;10.60;3.70;;;24.40;99.90;;;;;;5017926;28;20478;-79
2022/10/30 10:54:31;;;;;;;9.07;3.20;;;24.20;99.90;;;;;;5017595;28;20498;-79
2022/10/30 10:56:59;;;;;;;10.77;3.83;;;24.60;99.90;;;;;;5018516;28;20469;-78
2022/10/30 10:59:34;;;;;;;12.23;3.50;;;24.80;99.90;;;;;;5017237;28;20785;-78
2022/10/30 11:02:24;;;;;;;9.93;3.83;;;24.90;99.90;;;;;;5021207;28;20489;-77
2022/10/30 11:04:55;;;;;;;5.67;3.13;;;24.90;99.90;;;;;;5020951;28;20546;-78
2022/10/30 11:07:24;;;;;;;6.80;3.50;;;24.80;99.90;;;;;;5018248;28;20459;-79
2022/10/30 11:09:53;;;;;;;56.63;6.40;;;25.10;99.90;;;;;;5019184;28;20454;-79
2022/10/30 11:12:25;;;;;;;9.00;3.00;;;25.30;99.90;;;;;;5018703;28;20470;-78
2022/10/30 11:14:51;;;;;;;7.87;3.17;;;25.30;99.90;;;;;;5019101;28;20505;-79
2022/10/30 11:17:24;;;;;;;9.00;3.00;;;25.30;99.90;;;;;;5019130;28;20536;-79
2022/10/30 11:19:57;;;;;;;13.67;3.60;;;25.30;99.90;;;;;;5015338;28;20616;-79
2022/10/30 11:22:30;;;;;;;9.43;3.80;;;25.40;99.90;;;;;;5013110;28;20501;-78
2022/10/30 11:25:19;;;;;;;10.90;3.40;;;25.40;99.90;;;;;;5013859;28;20458;-85
2022/10/30 11:27:48;;;;;;;11.50;3.57;;;25.60;99.90;;;;;;5012585;28;20802;-80
2022/10/30 11:30:20;;;;;;;12.03;3.77;;;26.00;99.90;;;;;;5011624;28;20455;-83
2022/10/30 11:32:47;;;;;;;6.70;2.93;;;26.10;99.90;;;;;;5012136;28;20469;-79
2022/10/30 11:35:16;;;;;;;10.83;4.10;;;26.00;99.90;;;;;;5011217;28;20490;-80
2022/10/30 11:37:45;;;;;;;8.57;3.23;;;26.00;99.90;;;;;;5009793;28;20466;-69
2022/10/30 11:40:21;;;;;;;9.60;3.30;;;26.20;99.90;;;;;;5006251;28;20827;-70
2022/10/30 11:42:53;;;;;;;7.90;3.40;;;26.20;99.90;;;;;;5007305;28;20906;-77
2022/10/30 11:45:25;;;;;;;7.90;3.50;;;26.30;99.90;;;;;;5008109;28;20443;-77
2022/10/30 11:47:53;;;;;;;11.20;4.50;;;26.30;99.90;;;;;;5008929;28;20459;-77
2022/10/30 11:50:22;;;;;;;12.57;3.67;;;26.30;99.90;;;;;;5011589;28;20470;-78
2022/10/30 11:52:52;;;;;;;9.60;3.43;;;26.30;99.90;;;;;;5010715;28;20466;-78
2022/10/30 11:55:26;;;;;;;9.00;3.47;;;26.40;99.90;;;;;;5007173;28;21080;-76
2022/10/30 11:57:56;;;;;;;13.53;3.60;;;26.50;99.90;;;;;;5007764;28;20450;-77
2022/10/30 12:00:26;;;;;;;15.47;6.33;;;26.60;99.90;;;;;;5005911;28;20455;-77
2022/10/30 12:02:55;;;;;;;6.60;3.10;;;26.70;99.90;;;;;;5006577;28;20454;-77
2022/10/30 12:05:35;;;;;;;11.87;2.50;;;27.00;99.90;;;;;;5006619;28;21136;-77
2022/10/30 12:08:20;;;;;;;14.13;3.43;;;27.30;99.90;;;;;;5006871;28;20445;-77
2022/10/30 12:10:58;;;;;;;12.37;3.40;;;27.50;99.90;;;;;;5006409;28;20463;-77
2022/10/30 12:13:26;;;;;;;8.43;3.07;;;27.70;99.90;;;;;;5007441;28;20447;-78
2022/10/30 12:16:07;;;;;;;10.50;3.40;;;27.80;99.90;;;;;;5006514;28;20501;-79
2022/10/30 12:18:34;;;;;;;10.70;3.27;;;27.60;99.90;;;;;;5010894;28;20474;-79
2022/10/30 12:21:03;;;;;;;11.07;3.90;;;27.50;99.90;;;;;;5011354;28;20983;-79
2022/10/30 12:23:31;;;;;;;11.23;4.10;;;27.40;99.90;;;;;;5011734;28;20486;-80
2022/10/30 12:26:01;;;;;;;10.97;3.43;;;27.30;99.90;;;;;;5010693;28;20455;-79
2022/10/30 12:28:30;;;;;;;10.30;3.70;;;27.40;99.90;;;;;;5010975;28;20453;-79
2022/10/30 12:31:03;;;;;;;10.77;3.70;;;27.50;99.90;;;;;;5010568;28;20487;-79
2022/10/30 12:33:36;;;;;;;9.30;4.33;;;27.50;99.90;;;;;;5010680;28;20444;-79
2022/10/30 12:36:06;;;;;;;12.97;4.10;;;27.50;99.90;;;;;;5012368;28;20497;-79
2022/10/30 12:38:37;;;;;;;16.97;4.03;;;27.60;99.90;;;;;;5010877;28;20471;-79
2022/10/30 12:41:15;;;;;;;9.33;3.73;;;27.70;99.90;;;;;;5011222;28;20838;-80
2022/10/30 12:43:45;;;;;;;9.33;3.97;;;27.80;99.90;;;;;;5011628;28;20462;-79
2022/10/30 12:46:25;;;;;;;11.20;3.70;;;27.70;99.90;;;;;;5010742;28;20455;-79
2022/10/30 12:48:58;;;;;;;14.60;4.00;;;27.60;99.90;;;;;;5009742;28;20812;-79
2022/10/30 12:51:32;;;;;;;16.23;4.07;;;27.60;99.90;;;;;;5009370;28;20475;-69
2022/10/30 12:54:05;;;;;;;10.33;3.50;;;27.50;99.90;;;;;;5005710;28;20443;-69
2022/10/30 12:56:38;;;;;;;6.67;3.57;;;27.50;99.90;;;;;;5006253;28;21139;-68
2022/10/30 12:59:21;;;;;;;11.63;3.63;;;27.50;99.90;;;;;;5006099;28;20455;-69
2022/10/30 13:01:54;;;;;;;11.40;4.30;;;27.50;99.90;;;;;;5005926;28;20497;-69
2022/10/30 13:04:25;;;;;;;13.60;4.03;;;27.40;99.90;;;;;;5005438;28;20450;-69
2022/10/30 13:06:59;;;;;;;8.60;3.20;;;27.40;99.90;;;;;;5005250;28;20447;-69
2022/10/30 13:09:32;;;;;;;8.73;3.87;;;27.30;99.90;;;;;;5005815;28;20447;-68
2022/10/30 13:12:05;;;;;;;12.03;5.00;;;27.30;99.90;;;;;;5005909;28;20487;-68
2022/10/30 13:14:38;;;;;;;17.43;4.00;;;27.30;99.90;;;;;;5004954;28;20454;-68
2022/10/30 13:17:10;;;;;;;6.50;3.20;;;27.30;99.90;;;;;;5006329;28;20451;-68
2022/10/30 13:19:39;;;;;;;13.07;4.17;;;27.20;99.90;;;;;;5006227;28;20451;-68
2022/10/30 13:22:11;;;;;;;9.27;3.67;;;27.10;99.90;;;;;;5005578;28;20493;-65
2022/10/30 13:24:48;;;;;;;8.80;3.80;;;27.00;99.90;;;;;;5005079;28;21362;-65
2022/10/30 13:27:21;;;;;;;14.60;4.73;;;27.00;99.90;;;;;;5005460;28;20439;-66
2022/10/30 13:29:56;;;;;;;6.63;3.57;;;27.00;99.90;;;;;;5004460;28;20450;-69
2022/10/30 13:32:32;;;;;;;13.80;3.97;;;26.90;99.90;;;;;;5005072;28;20501;-66
2022/10/30 13:35:09;;;;;;;7.43;3.60;;;26.90;99.90;;;;;;5004769;28;20489;-66
2022/10/30 13:37:42;;;;;;;8.17;3.70;;;26.90;99.90;;;;;;5005198;28;20470;-66
2022/10/30 13:40:17;;;;;;;13.67;3.70;;;26.80;99.90;;;;;;5005197;28;20454;-65
2022/10/30 13:42:56;;;;;;;14.10;4.13;;;26.80;99.90;;;;;;5006349;28;20775;-77
2022/10/30 13:45:42;;;;;;;9.20;3.43;;;26.60;99.90;;;;;;5005738;28;20435;-77
2022/10/30 13:48:16;;;;;;;10.53;3.87;;;26.50;99.90;;;;;;5006097;28;20931;-77
2022/10/30 13:51:08;;;;;;;10.60;3.83;;;26.50;99.90;;;;;;5007002;28;20551;-77
2022/10/30 13:53:38;;;;;;;11.00;4.03;;;26.40;99.90;;;;;;5005785;28;20469;-77
2022/10/30 13:56:07;;;;;;;11.40;3.57;;;26.40;99.90;;;;;;5007867;28;20505;-77
2022/10/30 13:58:41;;;;;;;11.60;4.50;;;26.40;99.90;;;;;;5006603;28;21005;-76
2022/10/30 14:01:16;;;;;;;13.60;4.30;;;26.30;99.90;;;;;;5005070;28;20493;-76
2022/10/30 14:03:50;;;;;;;15.60;4.70;;;26.30;99.90;;;;;;5005155;28;20462;-76
2022/10/30 14:06:32;;;;;;;17.60;4.03;;;26.20;99.90;;;;;;5004995;28;20453;-66
2022/10/30 14:09:06;;;;;;;14.60;4.03;;;26.10;99.90;;;;;;5005801;28;20485;-65
2022/10/30 14:11:33;;;;;;;14.13;3.60;;;26.10;99.90;;;;;;5005972;28;20474;-65
2022/10/30 14:14:22;;;;;;;10.40;4.50;;;26.10;99.90;;;;;;5005074;28;20451;-65
2022/10/30 14:17:10;;;;;;;17.07;5.23;;;26.00;99.90;;;;;;5005487;28;20845;-69
2022/10/30 14:20:26;;;;;;;18.60;5.60;;;26.00;99.90;;;;;;5005632;28;20461;-69
2022/10/30 14:23:13;;;;;;;15.10;8.67;;;26.00;99.90;;;;;;5006294;28;21329;-69
2022/10/30 14:25:40;;;;;;;21.90;5.63;;;25.90;99.90;;;;;;5009004;28;20804;-69
2022/10/30 14:28:19;;;;;;;13.87;4.40;;;25.90;99.90;;;;;;5009650;28;20481;-68
2022/10/30 14:30:47;;;;;;;14.17;3.90;;;25.90;99.90;;;;;;5009184;28;20478;-65
2022/10/30 14:33:42;;;;;;;15.80;4.10;;;25.90;99.90;;;;;;5009112;28;20470;-66
2022/10/30 14:36:17;;;;;;;15.60;4.30;;;25.90;99.90;;;;;;4988988;28;20486;-65
2022/10/30 14:38:59;;;;;;;9.60;4.07;;;25.80;99.90;;;;;;5002984;28;20470;-65
2022/10/30 14:41:38;;;;;;;13.23;5.67;;;25.80;99.90;;;;;;5008703;28;20482;-65
2022/10/30 14:44:41;;;;;;;19.73;8.30;;;25.70;99.90;;;;;;5007646;28;20454;-65
2022/10/30 14:47:36;;;;;;;42.83;29.93;;;25.70;99.90;;;;;;4993455;28;20465;-65
2022/10/30 14:50:15;;;;;;;37.23;27.27;;;25.60;99.90;;;;;;5009016;28;20478;-64
2022/10/30 14:52:53;;;;;;;34.23;17.30;;;25.50;99.90;;;;;;5010143;28;20462;-78
2022/10/30 14:55:29;;;;;;;41.10;22.33;;;25.40;99.90;;;;;;5009601;28;20552;-77
2022/10/30 14:58:16;;;;;;;444.27;281.50;;;25.30;99.90;;;;;;5009550;28;20528;-73
2022/10/30 15:00:44;;;;;;;474.57;372.13;;;25.10;99.90;;;;;;5008878;28;20858;-78
2022/10/30 15:03:23;;;;;;;176.47;112.87;;;25.00;99.90;;;;;;5009488;28;20489;-75
2022/10/30 15:05:54;;;;;;;220.20;151.27;;;24.90;99.90;;;;;;5006960;28;20456;-77
2022/10/30 15:08:48;;;;;;;17.57;7.70;;;24.80;99.90;;;;;;5010319;28;20462;-76
2022/10/30 15:11:37;;;;;;;63.27;41.63;;;24.60;99.90;;;;;;5008551;28;20516;-77
2022/10/30 15:14:11;;;;;;;24.00;11.00;;;24.60;99.90;;;;;;5006798;28;20945;-77
2022/10/30 15:16:40;;;;;;;32.37;14.50;;;24.40;99.90;;;;;;5005260;28;20524;-77
2022/10/30 15:19:12;;;;;;;23.87;12.83;;;24.30;99.90;;;;;;5008542;28;20462;-77
2022/10/30 15:21:43;;;;;;;11.13;5.90;;;24.20;99.90;;;;;;5008253;28;20491;-77
2022/10/30 15:24:15;;;;;;;13.23;4.73;;;24.10;99.90;;;;;;5007125;28;20440;-77
2022/10/30 15:26:46;;;;;;;11.13;5.17;;;23.90;99.90;;;;;;5008291;28;20447;-76
2022/10/30 15:29:18;;;;;;;11.27;4.00;;;23.80;99.90;;;;;;5007976;28;21178;-77
2022/10/30 15:31:45;;;;;;;14.33;4.13;;;23.70;99.90;;;;;;5007256;28;20482;-77
2022/10/30 15:34:22;;;;;;;21.57;4.97;;;23.60;99.90;;;;;;5006676;28;20463;-77
2022/10/30 15:36:49;;;;;;;7.33;4.40;;;23.50;99.90;;;;;;5008364;28;20501;-76
2022/10/30 15:39:18;;;;;;;12.33;6.63;;;23.40;99.90;;;;;;5007979;28;20470;-77
2022/10/30 15:41:48;;;;;;;9.93;5.10;;;23.30;99.90;;;;;;5007877;28;20493;-76
2022/10/30 15:44:19;;;;;;;12.40;4.33;;;23.20;99.90;;;;;;5007073;28;20455;-76
2022/10/30 15:46:47;;;;;;;15.60;4.93;;;23.10;99.90;;;;;;5008038;28;20465;-77
2022/10/30 15:49:19;;;;;;;10.43;4.87;;;23.00;99.90;;;;;;5007994;28;20463;-76
2022/10/30 15:51:48;;;;;;;15.77;4.57;;;22.90;99.90;;;;;;5008197;28;20482;-76
2022/10/30 15:54:20;;;;;;;14.60;5.00;;;22.80;99.90;;;;;;5009525;28;20467;-77
2022/10/30 15:56:50;;;;;;;10.43;4.40;;;22.70;99.90;;;;;;5010785;28;20601;-77
2022/10/30 15:59:22;;;;;;;9.10;3.50;;;22.60;99.90;;;;;;5013618;28;20459;-77
2022/10/30 16:01:49;;;;;;;11.07;5.47;;;22.50;99.90;;;;;;5015060;28;20493;-77
2022/10/30 16:04:17;;;;;;;11.83;5.10;;;22.30;99.90;;;;;;5015215;28;20467;-77
2022/10/30 16:06:51;;;;;;;14.53;4.87;;;22.30;99.90;;;;;;5014442;28;20455;-77
2022/10/30 16:09:18;;;;;;;15.20;4.80;;;22.20;99.90;;;;;;5013926;28;20446;-77
2022/10/30 16:11:45;;;;;;;10.73;4.93;;;22.10;99.90;;;;;;5009663;28;20479;-77
2022/10/30 16:14:16;;;;;;;9.60;4.60;;;22.00;99.90;;;;;;5011095;28;20458;-77
2022/10/30 16:16:44;;;;;;;9.87;4.50;;;21.90;99.90;;;;;;5011352;28;20499;-77
2022/10/30 16:19:19;;;;;;;7.63;3.83;;;21.80;99.90;;;;;;5011311;28;20447;-77
2022/10/30 16:21:47;;;;;;;38.53;17.33;;;21.70;99.90;;;;;;5010722;28;20488;-77
2022/10/30 16:24:17;;;;;;;28.80;12.77;;;21.60;99.90;;;;;;5009518;28;20505;-77
2022/10/30 16:26:44;;;;;;;14.30;8.90;;;21.50;99.90;;;;;;5010687;28;20451;-77
2022/10/30 16:29:24;;;;;;;13.53;6.70;;;21.50;99.90;;;;;;5010559;28;20458;-77
2022/10/30 16:31:51;;;;;;;11.77;6.07;;;21.30;99.90;;;;;;5009925;28;20833;-77
2022/10/30 16:34:24;;;;;;;17.60;7.20;;;21.30;99.90;;;;;;5009854;28;20465;-77
2022/10/30 16:36:51;;;;;;;16.03;7.07;;;21.10;99.90;;;;;;5007584;28;20475;-78
2022/10/30 16:39:21;;;;;;;17.23;6.40;;;21.00;99.90;;;;;;5006270;28;20463;-74
2022/10/30 16:41:48;;;;;;;14.30;6.57;;;21.00;99.90;;;;;;5005646;28;20482;-73
2022/10/30 16:44:18;;;;;;;14.50;6.53;;;20.90;99.90;;;;;;5004624;28;20462;-73
2022/10/30 16:46:53;;;;;;;15.50;7.37;;;20.80;99.90;;;;;;5005526;28;20867;-73
2022/10/30 16:49:23;;;;;;;17.57;6.30;;;20.60;99.90;;;;;;5005434;28;20462;-73
2022/10/30 16:51:56;;;;;;;12.63;7.10;;;20.60;99.90;;;;;;5005531;28;20860;-73
2022/10/30 16:54:27;;;;;;;17.77;6.60;;;20.60;99.90;;;;;;5004991;28;20440;-73
2022/10/30 16:56:56;;;;;;;13.67;6.10;;;20.50;99.90;;;;;;5005477;28;20885;-74
2022/10/30 16:59:33;;;;;;;16.27;6.13;;;20.40;99.90;;;;;;5005464;28;20813;-73
2022/10/30 17:02:04;;;;;;;11.20;6.40;;;20.30;99.90;;;;;;5003433;28;20483;-74
2022/10/30 17:04:33;;;;;;;14.30;5.90;;;20.30;99.90;;;;;;5004760;28;20458;-73
2022/10/30 17:07:07;;;;;;;16.73;6.40;;;20.20;99.90;;;;;;5005348;28;20451;-72
2022/10/30 17:09:38;;;;;;;13.70;7.40;;;20.10;99.90;;;;;;5005557;28;20463;-73
2022/10/30 17:12:13;;;;;;;13.80;7.03;;;20.00;99.90;;;;;;5005124;28;20474;-74
2022/10/30 17:14:51;;;;;;;14.80;8.30;;;19.90;99.90;;;;;;5003445;28;20454;-73
2022/10/30 17:17:24;;;;;;;16.03;8.00;;;19.80;99.90;;;;;;5004907;28;20853;-72
2022/10/30 17:19:57;;;;;;;16.73;7.90;;;19.70;99.90;;;;;;5005082;28;20463;-74
2022/10/30 17:22:25;;;;;;;14.83;6.90;;;19.60;99.90;;;;;;5004841;28;20467;-72
2022/10/30 17:24:54;;;;;;;17.10;8.48;;;19.50;99.90;;;;;;5003157;28;20912;-73
2022/10/30 17:27:41;;;;;;;16.57;7.97;;;19.60;99.90;;;;;;5005049;28;20211;-74
2022/10/30 17:30:30;;;;;;;17.77;7.10;;;19.60;99.90;;;;;;5003332;28;20801;-73
2022/10/30 17:32:57;;;;;;;12.53;5.40;;;19.50;99.90;;;;;;5004902;28;20446;-74
2022/10/30 17:35:24;;;;;;;11.10;5.80;;;19.30;99.90;;;;;;5004131;28;20977;-72
2022/10/30 17:37:51;;;;;;;17.50;7.07;;;19.30;99.90;;;;;;5004294;28;20585;-73
2022/10/30 17:40:20;;;;;;;16.43;6.37;;;19.20;99.90;;;;;;5004919;28;20514;-74
2022/10/30 17:42:48;;;;;;;11.20;5.80;;;19.20;99.90;;;;;;5004715;28;20466;-72
2022/10/30 17:45:16;;;;;;;9.03;5.10;;;19.10;99.90;;;;;;5003912;28;20458;-75
2022/10/30 17:47:43;;;;;;;15.60;8.17;;;19.00;99.90;;;;;;5004762;28;21354;-72
2022/10/30 17:50:10;;;;;;;17.13;7.27;;;18.90;99.90;;;;;;5004867;28;20455;-72
2022/10/30 17:52:36;;;;;;;11.83;6.00;;;18.90;99.90;;;;;;5004393;28;20471;-74
2022/10/30 17:55:21;;;;;;;11.67;5.97;;;18.70;99.90;;;;;;5003585;28;20473;-77
2022/10/30 17:57:50;;;;;;;16.50;7.90;;;18.70;99.90;;;;;;5003922;28;21298;-72
2022/10/30 18:00:17;;;;;;;15.83;7.03;;;18.70;99.90;;;;;;5004763;28;20473;-75